createdAt,value
2019-05-18T00:33:59.799Z,20.20
2019-05-18T00:47:07.187Z,20.20
2019-05-18T01:00:14.385Z,20.20
2019-05-18T01:13:21.845Z,20.20
2019-05-18T01:26:29.022Z,20.20
2019-05-18T01:39:53.174Z,20.20
2019-05-18T01:53:15.964Z,20.20
2019-05-18T02:06:38.825Z,20.20
2019-05-18T02:20:01.640Z,20.30
2019-05-18T02:46:26.228Z,20.20
2019-05-18T02:59:33.684Z,20.30
2019-05-18T03:12:40.982Z,20.20
2019-05-18T03:25:48.807Z,20.20
2019-05-18T03:39:12.978Z,20.20
2019-05-18T03:52:35.908Z,20.30
2019-05-18T04:05:58.594Z,20.20
2019-05-18T04:19:21.411Z,20.20
2019-05-18T04:32:44.281Z,20.20
2019-05-18T04:46:07.031Z,20.30
2019-05-18T05:12:31.663Z,20.30
2019-05-18T05:25:38.858Z,20.20
2019-05-18T05:38:46.201Z,20.30
2019-05-18T05:51:53.560Z,20.20
2019-05-18T06:05:00.893Z,20.20
2019-05-18T06:18:25.078Z,20.20
2019-05-18T06:31:47.784Z,20.00
2019-05-18T06:58:12.279Z,20.20
2019-05-18T07:11:19.629Z,20.20
2019-05-18T07:24:26.791Z,20.10
2019-05-18T07:50:37.910Z,20.10
2019-05-18T08:03:45.161Z,20.20
2019-05-18T08:16:52.436Z,20.10
2019-05-18T08:29:59.998Z,20.20
2019-05-18T08:43:07.345Z,20.20
2019-05-18T09:07:26.555Z,20.40
2019-05-18T09:20:49.767Z,20.30
2019-05-18T09:34:12.382Z,20.30
2019-05-18T09:47:34.980Z,20.30
2019-05-18T10:00:57.771Z,20.30
2019-05-18T10:14:20.718Z,20.50
2019-05-18T10:27:43.638Z,20.30
2019-05-18T10:41:06.324Z,20.30
2019-05-18T10:54:29.116Z,20.30
2019-05-18T11:07:52.045Z,20.30
2019-05-18T11:21:14.726Z,20.30
2019-05-18T11:34:37.511Z,20.30
2019-05-18T11:48:00.313Z,20.30
2019-05-18T12:01:23.185Z,20.30
2019-05-18T12:14:45.979Z,20.40
2019-05-18T12:28:09.009Z,20.60
2019-05-18T12:41:32.041Z,20.80
2019-05-18T12:54:54.482Z,20.80
2019-05-18T13:08:17.250Z,20.80
2019-05-18T13:21:40.321Z,20.90
2019-05-18T13:35:02.994Z,21.00
2019-05-18T14:01:27.698Z,21.00
2019-05-18T14:14:35.347Z,21.00
2019-05-18T14:27:42.865Z,20.90
2019-05-18T14:40:50.206Z,20.80
2019-05-18T14:54:14.348Z,20.90
2019-05-18T15:07:37.307Z,20.80
2019-05-18T15:20:59.893Z,20.80
2019-05-18T15:34:22.999Z,20.80
2019-05-18T15:47:45.456Z,20.80
2019-05-18T16:01:08.276Z,21.00
2019-05-18T16:27:32.902Z,21.10
2019-05-18T16:40:40.093Z,21.10
2019-05-18T16:53:50.044Z,21.10
2019-05-18T17:06:54.487Z,21.10
2019-05-18T17:20:01.698Z,21.10
2019-05-18T17:33:09.144Z,20.90
2019-05-18T18:12:40.842Z,21.00
2019-05-18T18:25:48.066Z,21.00
2019-05-18T18:38:55.373Z,21.00
2019-05-18T18:52:02.697Z,21.00
2019-05-18T19:05:10.010Z,21.00
2019-05-18T19:18:34.632Z,21.00
2019-05-18T19:31:57.164Z,21.00
2019-05-18T19:45:19.939Z,21.00
2019-05-18T19:58:42.864Z,21.00
2019-05-18T20:12:05.701Z,21.00
2019-05-18T20:25:28.367Z,21.00
2019-05-18T21:08:20.358Z,21.00
2019-05-18T21:21:43.149Z,21.00
2019-05-18T21:35:06.239Z,21.10
2019-05-18T21:48:28.785Z,21.00
2019-05-18T22:27:59.636Z,21.00
2019-05-18T22:41:06.857Z,21.10
2019-05-18T22:54:14.240Z,21.00
2019-05-18T23:07:21.641Z,21.00
2019-05-18T23:20:28.802Z,21.00
2019-05-18T23:47:32.172Z,21.00
